地図

経路データ

SID SEASON NUMBER BASIN SUBBASIN NAME ISO_TIME NATURE LAT LON WMO_WIND WMO_PRES WMO_AGENCY TRACK_TYPE DIST2LAND LANDFALL IFLAG USA_AGENCY USA_ATCF_ID USA_LAT USA_LON USA_RECORD USA_STATUS USA_WIND USA_PRES USA_SSHS USA_R34_NE USA_R34_SE USA_R34_SW USA_R34_NW USA_R50_NE USA_R50_SE USA_R50_SW USA_R50_NW USA_R64_NE USA_R64_SE USA_R64_SW USA_R64_NW USA_POCI USA_ROCI USA_RMW USA_EYE TOKYO_LAT TOKYO_LON TOKYO_GRADE TOKYO_WIND TOKYO_PRES TOKYO_R50_DIR TOKYO_R50_LONG TOKYO_R50_SHORT TOKYO_R30_DIR TOKYO_R30_LONG TOKYO_R30_SHORT TOKYO_LAND CMA_LAT CMA_LON CMA_CAT CMA_WIND CMA_PRES HKO_LAT HKO_LON HKO_CAT HKO_WIND HKO_PRES NEWDELHI_LAT NEWDELHI_LON NEWDELHI_GRADE NEWDELHI_WIND NEWDELHI_PRES NEWDELHI_CI NEWDELHI_DP NEWDELHI_POCI REUNION_LAT REUNION_LON REUNION_TYPE REUNION_WIND REUNION_PRES REUNION_TNUM REUNION_CI REUNION_RMW REUNION_R34_NE REUNION_R34_SE REUNION_R34_SW REUNION_R34_NW REUNION_R50_NE REUNION_R50_SE REUNION_R50_SW REUNION_R50_NW REUNION_R64_NE REUNION_R64_SE REUNION_R64_SW REUNION_R64_NW BOM_LAT BOM_LON BOM_TYPE BOM_WIND BOM_PRES BOM_TNUM BOM_CI BOM_RMW BOM_R34_NE BOM_R34_SE BOM_R34_SW BOM_R34_NW BOM_R50_NE BOM_R50_SE BOM_R50_SW BOM_R50_NW BOM_R64_NE BOM_R64_SE BOM_R64_SW BOM_R64_NW BOM_ROCI BOM_POCI BOM_EYE BOM_POS_METHOD BOM_PRES_METHOD NADI_LAT NADI_LON NADI_CAT NADI_WIND NADI_PRES WELLINGTON_LAT WELLINGTON_LON WELLINGTON_WIND WELLINGTON_PRES DS824_LAT DS824_LON DS824_STAGE DS824_WIND DS824_PRES TD9636_LAT TD9636_LON TD9636_STAGE TD9636_WIND TD9636_PRES TD9635_LAT TD9635_LON TD9635_WIND TD9635_PRES TD9635_ROCI NEUMANN_LAT NEUMANN_LON NEUMANN_CLASS NEUMANN_WIND NEUMANN_PRES MLC_LAT MLC_LON MLC_CLASS MLC_WIND MLC_PRES USA_GUST BOM_GUST BOM_GUST_PER REUNION_GUST REUNION_GUST_PER USA_SEAHGT USA_SEARAD_NE USA_SEARAD_SE USA_SEARAD_SW USA_SEARAD_NW STORM_SPEED STORM_DIR
1875267N23267 1875 12 NA GM NOT_NAMED 1875-09-24 00:00:00 TS 23.4000 -93.4000 40 hurdat_atl main 409 409 O_____________ hurdat_atl AL041875 23.4000 -93.4000 TS 40 0 7 311
1875267N23267 1875 12 NA GM NOT_NAMED 1875-09-24 03:00:00 TS 23.6426 -93.6973 main 414 373 P_____________ AL041875 23.6426 -93.6973 TS 40 0 7 312
1875267N23267 1875 12 NA GM NOT_NAMED 1875-09-24 06:00:00 TS 23.9000 -94.0000 40 hurdat_atl main 373 330 O_____________ hurdat_atl AL041875 23.9000 -94.0000 TS 40 0 8 314
1875267N23267 1875 12 NA GM NOT_NAMED 1875-09-24 09:00:00 TS 24.1850 -94.3076 main 330 289 P_____________ AL041875 24.1850 -94.3076 TS 40 0 8 318
1875267N23267 1875 12 NA GM NOT_NAMED 1875-09-24 12:00:00 TS 24.5000 -94.6000 40 hurdat_atl main 289 247 O_____________ hurdat_atl AL041875 24.5000 -94.6000 TS 40 0 8 320
1875267N23267 1875 12 NA GM NOT_NAMED 1875-09-24 15:00:00 TS 24.8125 -94.8949 main 247 215 P_____________ AL041875 24.8125 -94.8949 TS 40 0 8 327
1875267N23267 1875 12 NA GM NOT_NAMED 1875-09-24 18:00:00 TS 25.2000 -95.1000 40 hurdat_atl main 215 192 O_____________ hurdat_atl AL041875 25.2000 -95.1000 TS 40 0 10 344
1875267N23267 1875 12 NA GM NOT_NAMED 1875-09-24 21:00:00 TS 25.7422 -95.1972 main 192 189 P_____________ AL041875 25.7422 -95.1972 TS 45 0 11 0
1875267N23267 1875 12 NA GM NOT_NAMED 1875-09-25 00:00:00 TS 26.3000 -95.1000 50 hurdat_atl main 202 202 O_____________ hurdat_atl AL041875 26.3000 -95.1000 TS 50 0 11 21
1875267N23267 1875 12 NA GM NOT_NAMED 1875-09-25 03:00:00 TS 26.7376 -94.7753 main 241 223 P_____________ AL041875 26.7376 -94.7753 TS 50 0 11 42
1875267N23267 1875 12 NA GM NOT_NAMED 1875-09-25 06:00:00 TS 27.1000 -94.3000 50 hurdat_atl main 228 213 O_____________ hurdat_atl AL041875 27.1000 -94.3000 TS 50 0 11 50
1875267N23267 1875 12 NA GM NOT_NAMED 1875-09-25 09:00:00 TS 27.4373 -93.8299 main 225 216 P_____________ AL041875 27.4373 -93.8299 TS 50 0 11 56
1875267N23267 1875 12 NA GM NOT_NAMED 1875-09-25 12:00:00 TS 27.7000 -93.3000 50 hurdat_atl main 222 182 O_____________ hurdat_atl AL041875 27.7000 -93.3000 TS 50 0 11 66
1875267N23267 1875 12 NA GM NOT_NAMED 1875-09-25 15:00:00 TS 27.8801 -92.6998 main 182 165 P_____________ AL041875 27.8801 -92.6998 TS 50 0 11 74
1875267N23267 1875 12 NA GM NOT_NAMED 1875-09-25 18:00:00 TS 28.0000 -92.1000 50 hurdat_atl main 165 130 O_____________ hurdat_atl AL041875 28.0000 -92.1000 TS 50 0 10 77
1875267N23267 1875 12 NA GM NOT_NAMED 1875-09-25 21:00:00 TS 28.0996 -91.5847 main 130 102 P_____________ AL041875 28.0996 -91.5847 TS 50 0 9 77
1875267N23267 1875 12 NA GM NOT_NAMED 1875-09-26 00:00:00 TS 28.2000 -91.1000 50 hurdat_atl main 102 89 O_____________ hurdat_atl AL041875 28.2000 -91.1000 TS 50 0 9 74
1875267N23267 1875 12 NA GM NOT_NAMED 1875-09-26 03:00:00 TS 28.3422 -90.6074 main 89 66 P_____________ AL041875 28.3422 -90.6074 TS 50 0 9 71
1875267N23267 1875 12 NA GM NOT_NAMED 1875-09-26 06:00:00 TS 28.5000 -90.1000 50 hurdat_atl main 66 59 O_____________ hurdat_atl AL041875 28.5000 -90.1000 TS 50 0 10 71
1875267N23267 1875 12 NA GM NOT_NAMED 1875-09-26 09:00:00 TS 28.6575 -89.5425 main 45 22 P_____________ AL041875 28.6575 -89.5425 TS 50 0 10 73
1875267N23267 1875 12 NA GM NOT_NAMED 1875-09-26 12:00:00 TS 28.8000 -89.0000 50 hurdat_atl main 24 24 O_____________ hurdat_atl AL041875 28.8000 -89.0000 TS 50 0 9 75
1875267N23267 1875 12 NA GM NOT_NAMED 1875-09-26 15:00:00 TS 28.8998 -88.5272 main 53 53 P_____________ AL041875 28.8998 -88.5272 TS 50 0 8 76
1875267N23267 1875 12 NA GM NOT_NAMED 1875-09-26 18:00:00 TS 29.0000 -88.1000 50 hurdat_atl main 88 88 O_____________ hurdat_atl AL041875 29.0000 -88.1000 TS 50 0 8 72
1875267N23267 1875 12 NA GM NOT_NAMED 1875-09-26 21:00:00 TS 29.1349 -87.6849 main 126 111 P_____________ AL041875 29.1349 -87.6849 TS 50 0 8 67
1875267N23267 1875 12 NA GM NOT_NAMED 1875-09-27 00:00:00 TS 29.3000 -87.3000 50 hurdat_atl main 112 91 O_____________ hurdat_atl AL041875 29.3000 -87.3000 TS 50 0 7 61
1875267N23267 1875 12 NA GM NOT_NAMED 1875-09-27 03:00:00 TS 29.4998 -86.9425 main 93 78 P_____________ AL041875 29.4998 -86.9425 TS 50 0 7 57
1875267N23267 1875 12 NA GM NOT_NAMED 1875-09-27 06:00:00 TS 29.7000 -86.6000 50 hurdat_atl main 78 58 O_____________ hurdat_atl AL041875 29.7000 -86.6000 TS 50 0 6 60
1875267N23267 1875 12 NA GM NOT_NAMED 1875-09-27 09:00:00 TS 29.8152 -86.3170 main 58 22 P_____________ AL041875 29.8152 -86.3170 TS 50 0 7 64
1875267N23267 1875 12 NA GM NOT_NAMED 1875-09-27 12:00:00 TS 30.0000 -85.9000 50 hurdat_atl main 22 0 O_____________ hurdat_atl AL041875 30.0000 -85.9000 TS 50 0 9 62
1875267N23267 1875 12 NA GM NOT_NAMED 1875-09-27 13:00:00 TS 30.1000 -85.7000 50 hurdat_atl main 0 0 O_____________ hurdat_atl AL041875 30.1000 -85.7000 L TS 50 0 10 59
1875267N23267 1875 12 NA NA NOT_NAMED 1875-09-27 15:00:00 TS 30.2732 -85.3831 main 0 0 P_____________ AL041875 30.2732 -85.3831 TS 45 0 9 56
1875267N23267 1875 12 NA NA NOT_NAMED 1875-09-27 18:00:00 TS 30.5000 -85.0000 40 hurdat_atl main 0 0 O_____________ hurdat_atl AL041875 30.5000 -85.0000 TS 40 0 9 57
1875267N23267 1875 12 NA NA NOT_NAMED 1875-09-27 21:00:00 TS 30.7427 -84.5358 main 0 0 P_____________ AL041875 30.7427 -84.5358 TS 35 0 10 60
1875267N23267 1875 12 NA NA NOT_NAMED 1875-09-28 00:00:00 TS 31.0000 -84.0000 30 hurdat_atl main 0 O_____________ hurdat_atl AL041875 31.0000 -84.0000 TD 30 -1 11 61

IBTrACS Databaseについて

本データベースは、米国NOAAが公開する1842年以降の世界の熱帯低気圧のベストトラックデータアーカイブInternational Best Track Archive for Climate Stewardship (IBTrACS)を、ウェブで閲覧しやすい形式に変換したものです。

最終更新日:2021-10-21